sensor_id;sensor_type;location;lat;lon;timestamp;temperature;humidity
24144;DHT22;12307;50.828;6.080;2022-08-11T00:00:49;25.40;57.00
24144;DHT22;12307;50.828;6.080;2022-08-11T00:03:17;25.40;57.20
24144;DHT22;12307;50.828;6.080;2022-08-11T00:05:45;25.40;57.10
24144;DHT22;12307;50.828;6.080;2022-08-11T00:08:20;25.40;57.20
24144;DHT22;12307;50.828;6.080;2022-08-11T00:10:52;25.40;57.10
24144;DHT22;12307;50.828;6.080;2022-08-11T00:13:21;25.40;57.20
24144;DHT22;12307;50.828;6.080;2022-08-11T00:15:48;25.40;57.20
24144;DHT22;12307;50.828;6.080;2022-08-11T00:31:35;25.40;57.30
24144;DHT22;12307;50.828;6.080;2022-08-11T00:34:02;25.40;57.30
24144;DHT22;12307;50.828;6.080;2022-08-11T00:36:36;25.40;57.30
24144;DHT22;12307;50.828;6.080;2022-08-11T00:39:50;25.40;57.30
24144;DHT22;12307;50.828;6.080;2022-08-11T00:43:11;25.40;57.40
24144;DHT22;12307;50.828;6.080;2022-08-11T00:49:40;25.40;57.50
24144;DHT22;12307;50.828;6.080;2022-08-11T01:00:05;25.30;57.30
24144;DHT22;12307;50.828;6.080;2022-08-11T01:02:52;25.30;57.30
24144;DHT22;12307;50.828;6.080;2022-08-11T01:05:44;25.30;57.30
24144;DHT22;12307;50.828;6.080;2022-08-11T01:15:23;25.30;57.30
24144;DHT22;12307;50.828;6.080;2022-08-11T01:18:51;25.30;57.40
24144;DHT22;12307;50.828;6.080;2022-08-11T01:48:04;25.30;57.60
24144;DHT22;12307;50.828;6.080;2022-08-11T01:54:43;25.30;57.60
24144;DHT22;12307;50.828;6.080;2022-08-11T01:57:33;25.30;57.70
24144;DHT22;12307;50.828;6.080;2022-08-11T02:00:48;25.30;57.60
24144;DHT22;12307;50.828;6.080;2022-08-11T02:14:41;25.20;57.60
24144;DHT22;12307;50.828;6.080;2022-08-11T02:18:05;25.20;57.60
24144;DHT22;12307;50.828;6.080;2022-08-11T02:28:21;25.20;57.70
24144;DHT22;12307;50.828;6.080;2022-08-11T02:41:49;25.20;57.70
24144;DHT22;12307;50.828;6.080;2022-08-11T02:54:58;25.10;57.60
24144;DHT22;12307;50.828;6.080;2022-08-11T02:57:37;25.10;57.70
24144;DHT22;12307;50.828;6.080;2022-08-11T03:00:07;25.20;57.70
24144;DHT22;12307;50.828;6.080;2022-08-11T03:02:52;25.10;57.70
24144;DHT22;12307;50.828;6.080;2022-08-11T03:05:33;25.10;57.60
24144;DHT22;12307;50.828;6.080;2022-08-11T03:08:10;25.10;57.60
24144;DHT22;12307;50.828;6.080;2022-08-11T03:10:43;25.10;57.70
24144;DHT22;12307;50.828;6.080;2022-08-11T03:13:40;25.10;57.80
24144;DHT22;12307;50.828;6.080;2022-08-11T03:16:31;25.10;57.70
24144;DHT22;12307;50.828;6.080;2022-08-11T03:19:17;25.10;57.70
24144;DHT22;12307;50.828;6.080;2022-08-11T03:21:47;25.10;57.70
24144;DHT22;12307;50.828;6.080;2022-08-11T03:24:20;25.10;57.70
24144;DHT22;12307;50.828;6.080;2022-08-11T03:26:55;25.10;57.70
24144;DHT22;12307;50.828;6.080;2022-08-11T03:29:30;25.10;57.70
24144;DHT22;12307;50.828;6.080;2022-08-11T03:32:03;25.10;57.70
24144;DHT22;12307;50.828;6.080;2022-08-11T03:34:32;25.10;57.70
24144;DHT22;12307;50.828;6.080;2022-08-11T03:37:14;25.10;57.70
24144;DHT22;12307;50.828;6.080;2022-08-11T03:40:12;25.10;57.70
24144;DHT22;12307;50.828;6.080;2022-08-11T03:42:57;25.10;57.80
24144;DHT22;12307;50.828;6.080;2022-08-11T04:19:06;25.10;57.80
24144;DHT22;12307;50.828;6.080;2022-08-11T04:25:14;25.00;57.70
24144;DHT22;12307;50.828;6.080;2022-08-11T04:48:57;25.10;57.80
24144;DHT22;12307;50.828;6.080;2022-08-11T04:55:34;25.00;57.80
24144;DHT22;12307;50.828;6.080;2022-08-11T04:58:23;25.00;57.80
24144;DHT22;12307;50.828;6.080;2022-08-11T05:01:22;25.00;57.80
24144;DHT22;12307;50.828;6.080;2022-08-11T05:04:27;25.00;57.80
24144;DHT22;12307;50.828;6.080;2022-08-11T05:10:42;25.00;57.80
24144;DHT22;12307;50.828;6.080;2022-08-11T05:13:11;25.00;57.80
24144;DHT22;12307;50.828;6.080;2022-08-11T05:16:09;25.00;57.80
24144;DHT22;12307;50.828;6.080;2022-08-11T05:18:54;25.00;57.80
24144;DHT22;12307;50.828;6.080;2022-08-11T05:21:42;25.00;57.90
24144;DHT22;12307;50.828;6.080;2022-08-11T05:24:32;25.00;57.80
24144;DHT22;12307;50.828;6.080;2022-08-11T05:27:39;25.00;57.90
24144;DHT22;12307;50.828;6.080;2022-08-11T05:43:20;25.00;57.90
24144;DHT22;12307;50.828;6.080;2022-08-11T05:46:06;25.00;57.90
24144;DHT22;12307;50.828;6.080;2022-08-11T05:48:51;25.00;57.90
24144;DHT22;12307;50.828;6.080;2022-08-11T05:51:37;25.00;57.90
24144;DHT22;12307;50.828;6.080;2022-08-11T05:54:23;25.00;57.90
24144;DHT22;12307;50.828;6.080;2022-08-11T05:57:21;25.00;57.90
24144;DHT22;12307;50.828;6.080;2022-08-11T06:03:53;25.00;58.00
24144;DHT22;12307;50.828;6.080;2022-08-11T06:06:40;25.00;58.40
24144;DHT22;12307;50.828;6.080;2022-08-11T06:09:11;25.00;57.90
24144;DHT22;12307;50.828;6.080;2022-08-11T06:11:40;25.00;58.00
24144;DHT22;12307;50.828;6.080;2022-08-11T06:14:07;25.00;58.00
24144;DHT22;12307;50.828;6.080;2022-08-11T06:16:36;25.00;57.90
24144;DHT22;12307;50.828;6.080;2022-08-11T06:19:07;25.00;57.90
24144;DHT22;12307;50.828;6.080;2022-08-11T06:21:34;25.00;57.90
24144;DHT22;12307;50.828;6.080;2022-08-11T06:24:09;25.00;57.90
24144;DHT22;12307;50.828;6.080;2022-08-11T06:26:48;25.00;57.90
24144;DHT22;12307;50.828;6.080;2022-08-11T06:29:26;25.00;57.90
24144;DHT22;12307;50.828;6.080;2022-08-11T06:32:26;25.00;57.90
24144;DHT22;12307;50.828;6.080;2022-08-11T06:35:23;25.00;57.90
24144;DHT22;12307;50.828;6.080;2022-08-11T06:38:06;25.00;57.90
24144;DHT22;12307;50.828;6.080;2022-08-11T06:40:41;25.00;57.90
24144;DHT22;12307;50.828;6.080;2022-08-11T06:43:14;25.00;57.90
24144;DHT22;12307;50.828;6.080;2022-08-11T06:45:49;25.00;58.00
24144;DHT22;12307;50.828;6.080;2022-08-11T06:48:17;25.00;57.90
24144;DHT22;12307;50.828;6.080;2022-08-11T06:54:11;25.00;57.80
24144;DHT22;12307;50.828;6.080;2022-08-11T06:56:39;25.00;57.90
24144;DHT22;12307;50.828;6.080;2022-08-11T06:59:26;25.00;57.90
24144;DHT22;12307;50.828;6.080;2022-08-11T07:02:16;25.00;57.90
24144;DHT22;12307;50.828;6.080;2022-08-11T07:04:48;25.00;58.20
24144;DHT22;12307;50.828;6.080;2022-08-11T07:10:49;25.00;58.00
24144;DHT22;12307;50.828;6.080;2022-08-11T07:13:44;25.00;58.00
24144;DHT22;12307;50.828;6.080;2022-08-11T07:16:41;25.10;58.10
24144;DHT22;12307;50.828;6.080;2022-08-11T07:19:28;25.10;58.10
24144;DHT22;12307;50.828;6.080;2022-08-11T07:22:13;25.10;58.00
24144;DHT22;12307;50.828;6.080;2022-08-11T07:25:02;25.10;58.40
24144;DHT22;12307;50.828;6.080;2022-08-11T07:27:57;25.10;59.00
24144;DHT22;12307;50.828;6.080;2022-08-11T07:30:43;25.10;58.70
24144;DHT22;12307;50.828;6.080;2022-08-11T07:33:13;25.10;58.90
24144;DHT22;12307;50.828;6.080;2022-08-11T07:35:47;25.10;58.80
24144;DHT22;12307;50.828;6.080;2022-08-11T07:38:18;25.10;59.20
24144;DHT22;12307;50.828;6.080;2022-08-11T07:40:47;25.10;58.80
24144;DHT22;12307;50.828;6.080;2022-08-11T07:43:14;25.10;59.60
24144;DHT22;12307;50.828;6.080;2022-08-11T07:45:41;25.10;59.50
24144;DHT22;12307;50.828;6.080;2022-08-11T07:48:32;25.10;59.40
24144;DHT22;12307;50.828;6.080;2022-08-11T07:51:20;25.10;59.30
24144;DHT22;12307;50.828;6.080;2022-08-11T07:54:13;25.10;59.20
24144;DHT22;12307;50.828;6.080;2022-08-11T07:56:53;25.20;59.10
24144;DHT22;12307;50.828;6.080;2022-08-11T08:02:51;25.10;58.80
24144;DHT22;12307;50.828;6.080;2022-08-11T08:05:37;25.10;58.80
24144;DHT22;12307;50.828;6.080;2022-08-11T08:08:22;25.20;59.00
24144;DHT22;12307;50.828;6.080;2022-08-11T08:11:07;25.20;58.90
24144;DHT22;12307;50.828;6.080;2022-08-11T08:13:52;25.20;58.80
24144;DHT22;12307;50.828;6.080;2022-08-11T08:16:38;25.20;59.10
24144;DHT22;12307;50.828;6.080;2022-08-11T08:19:24;25.20;58.80
24144;DHT22;12307;50.828;6.080;2022-08-11T08:21:53;25.20;58.50
24144;DHT22;12307;50.828;6.080;2022-08-11T08:24:20;25.30;58.60
24144;DHT22;12307;50.828;6.080;2022-08-11T08:26:47;25.30;58.40
24144;DHT22;12307;50.828;6.080;2022-08-11T08:29:27;25.30;58.30
24144;DHT22;12307;50.828;6.080;2022-08-11T08:32:13;25.30;58.50
24144;DHT22;12307;50.828;6.080;2022-08-11T08:34:42;25.30;58.70
24144;DHT22;12307;50.828;6.080;2022-08-11T08:37:09;25.30;58.80
24144;DHT22;12307;50.828;6.080;2022-08-11T08:39:35;25.30;58.80
24144;DHT22;12307;50.828;6.080;2022-08-11T08:42:06;25.40;58.80
24144;DHT22;12307;50.828;6.080;2022-08-11T08:44:35;25.40;58.50
24144;DHT22;12307;50.828;6.080;2022-08-11T08:47:04;25.40;58.50
24144;DHT22;12307;50.828;6.080;2022-08-11T08:49:34;25.40;58.30
24144;DHT22;12307;50.828;6.080;2022-08-11T08:52:04;25.40;58.40
24144;DHT22;12307;50.828;6.080;2022-08-11T08:54:34;25.40;58.10
24144;DHT22;12307;50.828;6.080;2022-08-11T08:57:03;25.40;58.30
24144;DHT22;12307;50.828;6.080;2022-08-11T08:59:31;25.40;58.00
24144;DHT22;12307;50.828;6.080;2022-08-11T09:01:59;25.50;57.80
24144;DHT22;12307;50.828;6.080;2022-08-11T09:04:26;25.50;58.20
24144;DHT22;12307;50.828;6.080;2022-08-11T09:06:53;25.50;58.10
24144;DHT22;12307;50.828;6.080;2022-08-11T09:09:22;25.50;58.10
24144;DHT22;12307;50.828;6.080;2022-08-11T09:11:49;25.50;57.90
24144;DHT22;12307;50.828;6.080;2022-08-11T09:14:15;25.50;57.90
24144;DHT22;12307;50.828;6.080;2022-08-11T09:16:41;25.50;58.00
24144;DHT22;12307;50.828;6.080;2022-08-11T09:19:34;25.50;57.80
24144;DHT22;12307;50.828;6.080;2022-08-11T09:22:18;25.60;57.80
24144;DHT22;12307;50.828;6.080;2022-08-11T09:25:09;25.60;57.90
24144;DHT22;12307;50.828;6.080;2022-08-11T09:27:56;25.60;57.90
24144;DHT22;12307;50.828;6.080;2022-08-11T09:30:23;25.60;57.90
24144;DHT22;12307;50.828;6.080;2022-08-11T09:32:56;25.60;57.80
24144;DHT22;12307;50.828;6.080;2022-08-11T09:35:26;25.60;58.40
24144;DHT22;12307;50.828;6.080;2022-08-11T09:37:53;25.60;57.90
24144;DHT22;12307;50.828;6.080;2022-08-11T09:40:41;25.60;58.20
24144;DHT22;12307;50.828;6.080;2022-08-11T09:43:11;25.60;58.00
24144;DHT22;12307;50.828;6.080;2022-08-11T09:45:57;25.70;58.10
24144;DHT22;12307;50.828;6.080;2022-08-11T09:48:28;25.60;57.90
24144;DHT22;12307;50.828;6.080;2022-08-11T09:50:57;25.70;58.00
24144;DHT22;12307;50.828;6.080;2022-08-11T09:53:25;25.70;57.90
24144;DHT22;12307;50.828;6.080;2022-08-11T09:55:53;25.70;58.10
24144;DHT22;12307;50.828;6.080;2022-08-11T09:58:19;25.70;58.10
24144;DHT22;12307;50.828;6.080;2022-08-11T10:00:48;25.70;58.10
24144;DHT22;12307;50.828;6.080;2022-08-11T10:03:16;25.80;58.20
24144;DHT22;12307;50.828;6.080;2022-08-11T10:05:45;25.80;58.00
24144;DHT22;12307;50.828;6.080;2022-08-11T10:08:40;25.80;58.10
24144;DHT22;12307;50.828;6.080;2022-08-11T10:11:11;25.80;58.20
24144;DHT22;12307;50.828;6.080;2022-08-11T10:13:41;25.80;58.20
24144;DHT22;12307;50.828;6.080;2022-08-11T10:16:28;25.80;58.20
24144;DHT22;12307;50.828;6.080;2022-08-11T10:18:55;25.90;58.20
24144;DHT22;12307;50.828;6.080;2022-08-11T10:21:25;25.80;58.10
24144;DHT22;12307;50.828;6.080;2022-08-11T10:23:53;25.90;58.10
24144;DHT22;12307;50.828;6.080;2022-08-11T10:26:41;25.90;58.10
24144;DHT22;12307;50.828;6.080;2022-08-11T10:29:20;25.90;58.20
24144;DHT22;12307;50.828;6.080;2022-08-11T10:32:07;25.90;58.10
24144;DHT22;12307;50.828;6.080;2022-08-11T10:34:53;25.90;58.10
24144;DHT22;12307;50.828;6.080;2022-08-11T10:37:21;25.90;58.10
24144;DHT22;12307;50.828;6.080;2022-08-11T10:39:48;26.00;58.20
24144;DHT22;12307;50.828;6.080;2022-08-11T10:42:16;26.00;58.10
24144;DHT22;12307;50.828;6.080;2022-08-11T10:45:03;26.00;58.00
24144;DHT22;12307;50.828;6.080;2022-08-11T10:47:29;26.00;58.00
24144;DHT22;12307;50.828;6.080;2022-08-11T10:50:06;26.00;58.10
24144;DHT22;12307;50.828;6.080;2022-08-11T10:52:52;26.10;58.00
24144;DHT22;12307;50.828;6.080;2022-08-11T10:55:37;26.10;58.00
24144;DHT22;12307;50.828;6.080;2022-08-11T10:58:24;26.10;58.00
24144;DHT22;12307;50.828;6.080;2022-08-11T11:01:09;26.10;58.00
24144;DHT22;12307;50.828;6.080;2022-08-11T11:03:36;26.10;58.00
24144;DHT22;12307;50.828;6.080;2022-08-11T11:06:07;26.10;57.70
24144;DHT22;12307;50.828;6.080;2022-08-11T11:08:41;26.10;57.80
24144;DHT22;12307;50.828;6.080;2022-08-11T11:11:42;26.20;57.80
24144;DHT22;12307;50.828;6.080;2022-08-11T11:14:31;26.10;57.50
24144;DHT22;12307;50.828;6.080;2022-08-11T11:17:39;26.20;57.50
24144;DHT22;12307;50.828;6.080;2022-08-11T11:23:42;26.20;57.40
24144;DHT22;12307;50.828;6.080;2022-08-11T11:26:30;26.20;57.10
24144;DHT22;12307;50.828;6.080;2022-08-11T11:29:31;26.20;57.00
24144;DHT22;12307;50.828;6.080;2022-08-11T11:32:23;26.20;56.90
24144;DHT22;12307;50.828;6.080;2022-08-11T11:35:08;26.20;56.90
24144;DHT22;12307;50.828;6.080;2022-08-11T11:37:40;26.20;57.00
24144;DHT22;12307;50.828;6.080;2022-08-11T11:40:08;26.30;56.90
24144;DHT22;12307;50.828;6.080;2022-08-11T11:42:38;26.30;56.90
24144;DHT22;12307;50.828;6.080;2022-08-11T11:45:08;26.30;56.80
24144;DHT22;12307;50.828;6.080;2022-08-11T11:47:35;26.30;56.70
24144;DHT22;12307;50.828;6.080;2022-08-11T11:50:02;26.30;56.70
24144;DHT22;12307;50.828;6.080;2022-08-11T11:52:30;26.30;56.70
24144;DHT22;12307;50.828;6.080;2022-08-11T11:54:56;26.30;56.60
24144;DHT22;12307;50.828;6.080;2022-08-11T11:57:24;26.30;56.50
24144;DHT22;12307;50.828;6.080;2022-08-11T12:00:12;26.40;56.50
24144;DHT22;12307;50.828;6.080;2022-08-11T12:02:59;26.30;56.40
24144;DHT22;12307;50.828;6.080;2022-08-11T12:05:26;26.30;56.30
24144;DHT22;12307;50.828;6.080;2022-08-11T12:07:53;26.30;56.20
24144;DHT22;12307;50.828;6.080;2022-08-11T12:10:39;26.30;56.10
24144;DHT22;12307;50.828;6.080;2022-08-11T12:13:07;26.30;56.10
24144;DHT22;12307;50.828;6.080;2022-08-11T12:15:53;26.30;56.10
24144;DHT22;12307;50.828;6.080;2022-08-11T12:18:19;26.30;56.00
24144;DHT22;12307;50.828;6.080;2022-08-11T12:20:45;26.40;56.00
24144;DHT22;12307;50.828;6.080;2022-08-11T12:23:12;26.40;55.90
24144;DHT22;12307;50.828;6.080;2022-08-11T12:25:57;26.40;55.80
24144;DHT22;12307;50.828;6.080;2022-08-11T12:28:43;26.30;55.70
24144;DHT22;12307;50.828;6.080;2022-08-11T12:31:11;26.40;55.60
24144;DHT22;12307;50.828;6.080;2022-08-11T12:33:38;26.40;55.40
24144;DHT22;12307;50.828;6.080;2022-08-11T12:36:07;26.40;55.40
24144;DHT22;12307;50.828;6.080;2022-08-11T12:38:34;26.40;55.50
24144;DHT22;12307;50.828;6.080;2022-08-11T12:41:01;26.40;55.40
24144;DHT22;12307;50.828;6.080;2022-08-11T12:43:46;26.40;55.50
24144;DHT22;12307;50.828;6.080;2022-08-11T12:46:34;26.40;55.40
24144;DHT22;12307;50.828;6.080;2022-08-11T12:49:12;26.40;55.40
24144;DHT22;12307;50.828;6.080;2022-08-11T12:52:03;26.40;55.20
24144;DHT22;12307;50.828;6.080;2022-08-11T12:54:33;26.40;55.70
24144;DHT22;12307;50.828;6.080;2022-08-11T12:57:01;26.30;55.10
24144;DHT22;12307;50.828;6.080;2022-08-11T12:59:47;26.40;55.20
24144;DHT22;12307;50.828;6.080;2022-08-11T13:02:36;26.30;55.00
24144;DHT22;12307;50.828;6.080;2022-08-11T13:05:20;26.30;55.00
24144;DHT22;12307;50.828;6.080;2022-08-11T13:07:47;26.30;54.90
24144;DHT22;12307;50.828;6.080;2022-08-11T13:10:15;26.40;55.20
24144;DHT22;12307;50.828;6.080;2022-08-11T13:13:06;26.30;55.00
24144;DHT22;12307;50.828;6.080;2022-08-11T13:15:33;26.30;55.00
24144;DHT22;12307;50.828;6.080;2022-08-11T13:18:04;26.40;55.10
24144;DHT22;12307;50.828;6.080;2022-08-11T13:20:34;26.40;55.10
24144;DHT22;12307;50.828;6.080;2022-08-11T13:23:00;26.40;55.20
24144;DHT22;12307;50.828;6.080;2022-08-11T13:25:29;26.30;55.20
24144;DHT22;12307;50.828;6.080;2022-08-11T13:27:58;26.30;55.10
24144;DHT22;12307;50.828;6.080;2022-08-11T13:30:27;26.30;55.10
24144;DHT22;12307;50.828;6.080;2022-08-11T13:33:14;26.30;55.10
24144;DHT22;12307;50.828;6.080;2022-08-11T13:35:45;26.30;55.20
24144;DHT22;12307;50.828;6.080;2022-08-11T13:38:15;26.30;55.10
24144;DHT22;12307;50.828;6.080;2022-08-11T13:40:42;26.30;55.10
24144;DHT22;12307;50.828;6.080;2022-08-11T13:43:09;26.30;55.20
24144;DHT22;12307;50.828;6.080;2022-08-11T13:45:35;26.30;55.30
24144;DHT22;12307;50.828;6.080;2022-08-11T13:48:03;26.30;55.20
24144;DHT22;12307;50.828;6.080;2022-08-11T13:50:34;26.30;55.30
24144;DHT22;12307;50.828;6.080;2022-08-11T13:53:21;26.30;55.30
24144;DHT22;12307;50.828;6.080;2022-08-11T13:55:48;26.30;55.30
24144;DHT22;12307;50.828;6.080;2022-08-11T13:58:14;26.30;55.30
24144;DHT22;12307;50.828;6.080;2022-08-11T14:00:44;26.30;55.40
24144;DHT22;12307;50.828;6.080;2022-08-11T14:03:11;26.30;55.50
24144;DHT22;12307;50.828;6.080;2022-08-11T14:05:41;26.30;55.30
24144;DHT22;12307;50.828;6.080;2022-08-11T14:08:12;26.30;55.00
24144;DHT22;12307;50.828;6.080;2022-08-11T14:10:40;26.30;55.00
24144;DHT22;12307;50.828;6.080;2022-08-11T14:13:09;26.30;54.90
24144;DHT22;12307;50.828;6.080;2022-08-11T14:15:58;26.30;54.90
24144;DHT22;12307;50.828;6.080;2022-08-11T14:18:29;26.30;55.00
24144;DHT22;12307;50.828;6.080;2022-08-11T14:21:04;26.30;55.50
24144;DHT22;12307;50.828;6.080;2022-08-11T14:23:50;26.30;54.80
24144;DHT22;12307;50.828;6.080;2022-08-11T14:26:21;26.30;54.80
24144;DHT22;12307;50.828;6.080;2022-08-11T14:28:56;26.30;54.90
24144;DHT22;12307;50.828;6.080;2022-08-11T14:31:24;26.30;54.90
24144;DHT22;12307;50.828;6.080;2022-08-11T14:33:54;26.30;54.90
24144;DHT22;12307;50.828;6.080;2022-08-11T14:36:38;26.30;54.90
24144;DHT22;12307;50.828;6.080;2022-08-11T14:39:33;26.30;54.90
24144;DHT22;12307;50.828;6.080;2022-08-11T14:42:08;26.30;55.00
24144;DHT22;12307;50.828;6.080;2022-08-11T14:44:56;26.30;55.00
24144;DHT22;12307;50.828;6.080;2022-08-11T14:47:43;26.20;55.00
24144;DHT22;12307;50.828;6.080;2022-08-11T14:50:11;26.30;55.30
24144;DHT22;12307;50.828;6.080;2022-08-11T14:52:47;26.20;55.00
24144;DHT22;12307;50.828;6.080;2022-08-11T14:55:14;26.20;55.10
24144;DHT22;12307;50.828;6.080;2022-08-11T14:57:59;26.20;55.30
24144;DHT22;12307;50.828;6.080;2022-08-11T15:00:26;26.20;55.30
24144;DHT22;12307;50.828;6.080;2022-08-11T15:02:53;26.20;55.40
24144;DHT22;12307;50.828;6.080;2022-08-11T15:05:35;26.20;55.50
24144;DHT22;12307;50.828;6.080;2022-08-11T15:14:48;26.20;55.60
24144;DHT22;12307;50.828;6.080;2022-08-11T15:21:35;26.20;55.70
24144;DHT22;12307;50.828;6.080;2022-08-11T15:25:22;26.20;55.70
24144;DHT22;12307;50.828;6.080;2022-08-11T15:31:38;26.20;55.70
24144;DHT22;12307;50.828;6.080;2022-08-11T15:34:28;26.20;56.30
24144;DHT22;12307;50.828;6.080;2022-08-11T15:37:14;26.20;55.80
24144;DHT22;12307;50.828;6.080;2022-08-11T15:39:53;26.20;55.90
24144;DHT22;12307;50.828;6.080;2022-08-11T15:42:46;26.20;55.90
24144;DHT22;12307;50.828;6.080;2022-08-11T15:45:35;26.20;55.80
24144;DHT22;12307;50.828;6.080;2022-08-11T15:48:20;26.20;56.10
24144;DHT22;12307;50.828;6.080;2022-08-11T15:50:49;26.20;56.00
24144;DHT22;12307;50.828;6.080;2022-08-11T15:56:28;26.20;55.90
24144;DHT22;12307;50.828;6.080;2022-08-11T15:58:56;26.20;55.90
24144;DHT22;12307;50.828;6.080;2022-08-11T16:01:43;26.20;56.00
24144;DHT22;12307;50.828;6.080;2022-08-11T16:04:30;26.20;56.00
24144;DHT22;12307;50.828;6.080;2022-08-11T16:06:58;26.20;56.00
24144;DHT22;12307;50.828;6.080;2022-08-11T16:09:32;26.20;56.10
24144;DHT22;12307;50.828;6.080;2022-08-11T16:12:02;26.20;56.10
24144;DHT22;12307;50.828;6.080;2022-08-11T16:14:32;26.20;56.10
24144;DHT22;12307;50.828;6.080;2022-08-11T16:17:23;26.20;56.20
24144;DHT22;12307;50.828;6.080;2022-08-11T16:39:36;26.20;56.30
24144;DHT22;12307;50.828;6.080;2022-08-11T16:42:02;26.10;56.10
24144;DHT22;12307;50.828;6.080;2022-08-11T16:44:46;26.10;56.20
24144;DHT22;12307;50.828;6.080;2022-08-11T16:47:31;26.10;56.30
24144;DHT22;12307;50.828;6.080;2022-08-11T16:49:57;26.10;56.30
24144;DHT22;12307;50.828;6.080;2022-08-11T16:52:24;26.20;56.30
24144;DHT22;12307;50.828;6.080;2022-08-11T16:54:51;26.10;56.30
24144;DHT22;12307;50.828;6.080;2022-08-11T16:57:20;26.10;56.30
24144;DHT22;12307;50.828;6.080;2022-08-11T17:00:07;26.20;56.50
24144;DHT22;12307;50.828;6.080;2022-08-11T17:02:41;26.10;56.30
24144;DHT22;12307;50.828;6.080;2022-08-11T17:05:33;26.20;56.40
24144;DHT22;12307;50.828;6.080;2022-08-11T17:08:19;26.20;56.40
24144;DHT22;12307;50.828;6.080;2022-08-11T17:11:07;26.10;56.40
24144;DHT22;12307;50.828;6.080;2022-08-11T17:13:57;26.10;56.40
24144;DHT22;12307;50.828;6.080;2022-08-11T17:16:26;26.10;56.40
24144;DHT22;12307;50.828;6.080;2022-08-11T17:18:58;26.10;56.40
24144;DHT22;12307;50.828;6.080;2022-08-11T17:21:25;26.10;56.40
24144;DHT22;12307;50.828;6.080;2022-08-11T17:23:53;26.10;56.50
24144;DHT22;12307;50.828;6.080;2022-08-11T17:26:25;26.10;56.50
24144;DHT22;12307;50.828;6.080;2022-08-11T17:29:13;26.10;56.50
24144;DHT22;12307;50.828;6.080;2022-08-11T17:31:39;26.10;56.50
24144;DHT22;12307;50.828;6.080;2022-08-11T17:34:24;26.10;56.50
24144;DHT22;12307;50.828;6.080;2022-08-11T17:37:09;26.10;56.50
24144;DHT22;12307;50.828;6.080;2022-08-11T17:39:35;26.10;56.50
24144;DHT22;12307;50.828;6.080;2022-08-11T17:42:04;26.10;56.50
24144;DHT22;12307;50.828;6.080;2022-08-11T17:45:07;26.10;56.50
24144;DHT22;12307;50.828;6.080;2022-08-11T17:47:53;26.10;56.50
24144;DHT22;12307;50.828;6.080;2022-08-11T17:50:40;26.10;56.60
24144;DHT22;12307;50.828;6.080;2022-08-11T17:53:06;26.10;56.60
24144;DHT22;12307;50.828;6.080;2022-08-11T17:55:51;26.10;56.60
24144;DHT22;12307;50.828;6.080;2022-08-11T17:58:42;26.10;56.60
24144;DHT22;12307;50.828;6.080;2022-08-11T18:01:29;26.10;56.70
24144;DHT22;12307;50.828;6.080;2022-08-11T18:03:58;26.10;56.70
24144;DHT22;12307;50.828;6.080;2022-08-11T18:06:27;26.10;56.70
24144;DHT22;12307;50.828;6.080;2022-08-11T18:08:55;26.10;56.70
24144;DHT22;12307;50.828;6.080;2022-08-11T18:11:40;26.10;56.70
24144;DHT22;12307;50.828;6.080;2022-08-11T18:14:27;26.10;56.70
24144;DHT22;12307;50.828;6.080;2022-08-11T18:17:14;26.10;56.70
24144;DHT22;12307;50.828;6.080;2022-08-11T18:19:58;26.00;56.70
24144;DHT22;12307;50.828;6.080;2022-08-11T18:22:44;26.10;56.70
24144;DHT22;12307;50.828;6.080;2022-08-11T18:25:33;26.00;56.70
24144;DHT22;12307;50.828;6.080;2022-08-11T18:28:23;26.00;56.70
24144;DHT22;12307;50.828;6.080;2022-08-11T18:31:12;26.00;56.70
24144;DHT22;12307;50.828;6.080;2022-08-11T18:34:01;26.00;56.70
24144;DHT22;12307;50.828;6.080;2022-08-11T18:36:51;26.00;56.70
24144;DHT22;12307;50.828;6.080;2022-08-11T18:39:43;26.00;56.80
24144;DHT22;12307;50.828;6.080;2022-08-11T18:42:29;26.00;56.80
24144;DHT22;12307;50.828;6.080;2022-08-11T18:45:15;26.00;56.80
24144;DHT22;12307;50.828;6.080;2022-08-11T18:48:05;26.00;56.80
24144;DHT22;12307;50.828;6.080;2022-08-11T18:50:52;26.00;56.80
24144;DHT22;12307;50.828;6.080;2022-08-11T18:53:40;26.00;56.80
24144;DHT22;12307;50.828;6.080;2022-08-11T18:56:26;26.00;56.90
24144;DHT22;12307;50.828;6.080;2022-08-11T18:59:13;26.00;56.80
24144;DHT22;12307;50.828;6.080;2022-08-11T19:02:01;26.00;56.80
24144;DHT22;12307;50.828;6.080;2022-08-11T19:04:49;26.00;56.90
24144;DHT22;12307;50.828;6.080;2022-08-11T19:07:33;26.00;56.90
24144;DHT22;12307;50.828;6.080;2022-08-11T19:10:20;26.00;56.80
24144;DHT22;12307;50.828;6.080;2022-08-11T19:13:05;26.00;56.90
24144;DHT22;12307;50.828;6.080;2022-08-11T19:15:51;26.00;56.90
24144;DHT22;12307;50.828;6.080;2022-08-11T19:18:37;26.00;56.90
24144;DHT22;12307;50.828;6.080;2022-08-11T19:21:24;26.00;56.90
24144;DHT22;12307;50.828;6.080;2022-08-11T19:24:09;26.00;57.00
24144;DHT22;12307;50.828;6.080;2022-08-11T19:26:53;26.00;56.90
24144;DHT22;12307;50.828;6.080;2022-08-11T19:29:40;26.00;56.90
24144;DHT22;12307;50.828;6.080;2022-08-11T19:32:25;26.00;57.00
24144;DHT22;12307;50.828;6.080;2022-08-11T19:35:13;26.00;57.00
24144;DHT22;12307;50.828;6.080;2022-08-11T19:38:00;26.00;57.00
24144;DHT22;12307;50.828;6.080;2022-08-11T19:40:46;26.00;57.00
24144;DHT22;12307;50.828;6.080;2022-08-11T19:43:31;26.00;57.00
24144;DHT22;12307;50.828;6.080;2022-08-11T19:46:19;25.90;57.00
24144;DHT22;12307;50.828;6.080;2022-08-11T19:49:03;26.00;57.10
24144;DHT22;12307;50.828;6.080;2022-08-11T19:51:49;25.90;57.00
24144;DHT22;12307;50.828;6.080;2022-08-11T19:54:35;25.90;57.00
24144;DHT22;12307;50.828;6.080;2022-08-11T19:57:23;25.90;57.00
24144;DHT22;12307;50.828;6.080;2022-08-11T20:00:10;25.90;57.10
24144;DHT22;12307;50.828;6.080;2022-08-11T20:02:55;25.90;57.10
24144;DHT22;12307;50.828;6.080;2022-08-11T20:05:40;25.90;57.10
24144;DHT22;12307;50.828;6.080;2022-08-11T20:08:26;25.90;57.10
24144;DHT22;12307;50.828;6.080;2022-08-11T20:11:14;25.90;57.10
24144;DHT22;12307;50.828;6.080;2022-08-11T20:13:59;25.90;57.10
24144;DHT22;12307;50.828;6.080;2022-08-11T20:16:44;25.90;57.10
24144;DHT22;12307;50.828;6.080;2022-08-11T20:19:30;25.90;57.10
24144;DHT22;12307;50.828;6.080;2022-08-11T20:22:17;25.90;57.10
24144;DHT22;12307;50.828;6.080;2022-08-11T20:25:03;25.90;57.10
24144;DHT22;12307;50.828;6.080;2022-08-11T20:27:51;25.90;57.80
24144;DHT22;12307;50.828;6.080;2022-08-11T20:30:37;25.90;57.10
24144;DHT22;12307;50.828;6.080;2022-08-11T20:33:23;25.90;57.10
24144;DHT22;12307;50.828;6.080;2022-08-11T20:36:09;25.90;57.10
24144;DHT22;12307;50.828;6.080;2022-08-11T20:38:55;25.90;57.20
24144;DHT22;12307;50.828;6.080;2022-08-11T20:41:41;25.90;57.20